Time;durP1;ratioP1;P1;durP2;ratioP2;P2;SDS_P1;SDS_P2;PMS_P1;PMS_P2;Temp;Humidity;BMP_temperature;BMP_pressure;BME280_temperature;BME280_humidity;BME280_pressure;Samples;Min_cycle;Max_cycle;Signal;HPM_P1;HPM_P2
2021/01/03 00:02:02;;;;;;;5.80;4.18;;;9.10;81.00;;;;;;5113553;28;20043;-45
2021/01/03 00:04:29;;;;;;;5.22;3.90;;;9.00;80.90;;;;;;5113388;28;20051;-45
2021/01/03 00:06:55;;;;;;;4.65;4.10;;;9.00;80.90;;;;;;5113197;28;20044;-45
2021/01/03 00:09:23;;;;;;;5.55;4.25;;;9.10;81.00;;;;;;5113663;28;20077;-42
2021/01/03 00:11:49;;;;;;;5.82;4.55;;;9.10;81.00;;;;;;5113469;28;20054;-43
2021/01/03 00:14:15;;;;;;;5.82;4.30;;;9.10;81.00;;;;;;5113389;28;20048;-45
2021/01/03 00:16:45;;;;;;;6.38;4.20;;;9.10;81.00;;;;;;5113459;28;20403;-43
2021/01/03 00:19:11;;;;;;;6.45;4.30;;;9.10;81.00;;;;;;5112865;28;20048;-44
2021/01/03 00:21:36;;;;;;;6.40;4.20;;;9.10;81.00;;;;;;5113146;28;20054;-46
2021/01/03 00:24:02;;;;;;;5.90;4.15;;;9.10;81.00;;;;;;5113540;28;20105;-43
2021/01/03 00:26:28;;;;;;;6.43;4.50;;;9.00;80.90;;;;;;5113305;28;20063;-46
2021/01/03 00:28:53;;;;;;;5.93;4.43;;;9.10;81.00;;;;;;5113204;28;20043;-46
2021/01/03 00:31:19;;;;;;;6.20;4.38;;;9.10;81.00;;;;;;5113406;28;20048;-45
2021/01/03 00:33:45;;;;;;;5.68;4.75;;;9.10;81.00;;;;;;5113158;28;20404;-41
2021/01/03 00:36:11;;;;;;;5.97;4.55;;;9.10;81.00;;;;;;5112832;28;20130;-44
2021/01/03 00:38:37;;;;;;;6.43;4.47;;;9.10;81.00;;;;;;5113138;28;20044;-46
2021/01/03 00:41:03;;;;;;;6.95;4.72;;;9.10;81.00;;;;;;5113478;28;20100;-45
2021/01/03 00:43:29;;;;;;;5.88;4.43;;;9.00;80.90;;;;;;5113343;28;20055;-46
2021/01/03 00:45:55;;;;;;;5.82;4.15;;;9.00;80.90;;;;;;5111839;28;20496;-46
2021/01/03 00:48:21;;;;;;;6.10;4.80;;;9.10;81.00;;;;;;5112858;28;20055;-44
2021/01/03 00:50:46;;;;;;;5.70;4.03;;;9.10;81.00;;;;;;5112754;28;20051;-48
2021/01/03 00:53:12;;;;;;;6.78;4.85;;;9.10;81.00;;;;;;5113213;28;20108;-46
2021/01/03 00:55:38;;;;;;;7.72;4.85;;;9.10;81.00;;;;;;5113252;28;20058;-50
2021/01/03 00:58:04;;;;;;;6.07;4.32;;;9.10;81.00;;;;;;5113162;28;20047;-44
2021/01/03 01:00:33;;;;;;;6.00;5.00;;;9.10;81.00;;;;;;5116090;28;20093;-44
2021/01/03 01:03:00;;;;;;;7.22;5.18;;;9.00;80.90;;;;;;5116969;28;20048;-43
2021/01/03 01:05:26;;;;;;;7.53;5.35;;;9.10;81.00;;;;;;5116611;28;20078;-48
2021/01/03 01:07:53;;;;;;;9.65;5.45;;;9.00;80.90;;;;;;5116561;28;20075;-47
2021/01/03 01:10:24;;;;;;;6.68;5.15;;;9.00;80.90;;;;;;5117160;28;20089;-44
2021/01/03 01:12:51;;;;;;;8.35;5.65;;;9.10;81.00;;;;;;5117150;27;20051;-46
2021/01/03 01:15:18;;;;;;;7.40;4.90;;;9.10;81.00;;;;;;5116866;28;20577;-45
2021/01/03 01:17:46;;;;;;;8.80;6.68;;;9.10;81.00;;;;;;5116953;28;20052;-43
2021/01/03 01:20:12;;;;;;;7.57;5.28;;;9.10;81.00;;;;;;5116550;28;20077;-43
2021/01/03 01:22:38;;;;;;;8.75;5.35;;;9.00;81.00;;;;;;5116162;28;20054;-44
2021/01/03 01:25:06;;;;;;;9.88;6.38;;;9.00;81.00;;;;;;5116718;28;20424;-44
2021/01/03 01:27:31;;;;;;;11.10;6.55;;;9.10;81.00;;;;;;5116591;28;20138;-45
2021/01/03 01:29:57;;;;;;;7.35;5.78;;;9.00;81.00;;;;;;5116205;28;20126;-44
2021/01/03 01:32:23;;;;;;;9.63;6.25;;;9.10;81.00;;;;;;5116324;28;20044;-43
2021/01/03 01:34:48;;;;;;;7.40;5.57;;;9.10;81.60;;;;;;5116436;28;20044;-44
2021/01/03 01:37:14;;;;;;;9.23;6.40;;;9.10;81.10;;;;;;5115923;28;20046;-45
2021/01/03 01:39:40;;;;;;;8.95;5.82;;;9.10;81.00;;;;;;5116411;28;20051;-42
2021/01/03 01:42:05;;;;;;;8.60;6.32;;;9.10;81.00;;;;;;5116309;28;20180;-39
2021/01/03 01:44:31;;;;;;;11.07;6.25;;;9.00;80.90;;;;;;5115998;27;20040;-45
2021/01/03 01:47:06;;;;;;;11.00;6.55;;;9.00;80.90;;;;;;5116254;28;20052;-43
2021/01/03 01:49:39;;;;;;;9.98;6.45;;;9.10;81.00;;;;;;5116262;28;20062;-43
2021/01/03 01:52:06;;;;;;;9.65;6.55;;;9.10;81.00;;;;;;5115860;28;20130;-44
2021/01/03 01:54:36;;;;;;;11.73;6.70;;;9.00;80.90;;;;;;5116003;27;20062;-45
2021/01/03 01:57:17;;;;;;;8.23;5.80;;;9.10;81.00;;;;;;5116043;28;20055;-46
2021/01/03 02:00:03;;;;;;;10.40;7.15;;;9.00;81.00;;;;;;5115790;28;20043;-48
2021/01/03 02:02:43;;;;;;;8.73;6.32;;;9.00;80.90;;;;;;5115647;28;20388;-47
2021/01/03 02:05:23;;;;;;;10.55;6.72;;;9.10;81.00;;;;;;5115989;28;20127;-49
2021/01/03 02:07:57;;;;;;;10.60;6.72;;;9.10;81.00;;;;;;5115425;28;20055;-49
2021/01/03 02:10:36;;;;;;;12.20;7.85;;;9.00;80.90;;;;;;5115436;28;20483;-47
2021/01/03 02:13:04;;;;;;;10.57;7.13;;;9.00;81.00;;;;;;5115311;28;20419;-49
2021/01/03 02:15:32;;;;;;;9.32;6.57;;;9.00;81.00;;;;;;5115795;28;20178;-47
2021/01/03 02:18:01;;;;;;;11.07;7.20;;;9.10;81.00;;;;;;5115756;27;20039;-47
2021/01/03 02:20:32;;;;;;;11.60;7.28;;;9.00;81.00;;;;;;5113797;28;20058;-49
2021/01/03 02:23:03;;;;;;;11.07;7.07;;;9.00;81.00;;;;;;5115433;28;20044;-44
2021/01/03 02:25:29;;;;;;;11.10;6.97;;;9.10;81.10;;;;;;5115356;28;20055;-47
2021/01/03 02:28:11;;;;;;;10.93;6.70;;;9.00;80.90;;;;;;5115122;28;20088;-46
2021/01/03 02:30:38;;;;;;;8.48;6.30;;;9.10;81.00;;;;;;5115146;28;20067;-47
2021/01/03 02:33:10;;;;;;;10.32;7.05;;;9.00;80.90;;;;;;5115287;28;20067;-46
2021/01/03 02:35:41;;;;;;;12.30;7.78;;;9.00;81.00;;;;;;5115131;28;20560;-48
2021/01/03 02:38:08;;;;;;;11.32;7.68;;;9.00;81.00;;;;;;5114736;28;20048;-46
2021/01/03 02:40:33;;;;;;;13.32;7.53;;;9.00;80.90;;;;;;5115224;28;20062;-47
2021/01/03 02:42:59;;;;;;;11.57;7.60;;;9.00;80.90;;;;;;5115269;28;20131;-47
2021/01/03 02:45:29;;;;;;;16.67;8.40;;;9.00;81.00;;;;;;5115222;28;20126;-48
2021/01/03 02:48:18;;;;;;;11.75;7.60;;;9.00;81.00;;;;;;5114911;28;20036;-47
2021/01/03 02:50:44;;;;;;;12.13;7.47;;;9.10;81.00;;;;;;5115070;28;20074;-44
2021/01/03 02:53:10;;;;;;;12.05;7.57;;;9.00;81.60;;;;;;5114941;28;20073;-46
2021/01/03 02:55:36;;;;;;;12.63;8.10;;;9.00;80.90;;;;;;5114753;28;20039;-45
2021/01/03 02:58:02;;;;;;;12.82;7.60;;;9.00;81.00;;;;;;5114790;28;20055;-46
2021/01/03 03:00:37;;;;;;;13.57;7.72;;;9.00;80.90;;;;;;5114760;28;20051;-43
2021/01/03 03:03:04;;;;;;;14.43;8.43;;;9.10;81.00;;;;;;5114752;28;20119;-45
2021/01/03 03:05:30;;;;;;;12.75;7.82;;;9.00;81.00;;;;;;5113208;28;20051;-45
2021/01/03 03:07:56;;;;;;;10.63;7.47;;;9.00;81.00;;;;;;5114551;28;20130;-44
2021/01/03 03:10:23;;;;;;;13.18;8.93;;;9.00;80.90;;;;;;5114493;28;20071;-45
2021/01/03 03:12:54;;;;;;;13.00;8.68;;;9.00;81.00;;;;;;5113387;28;20044;-44
2021/01/03 03:15:23;;;;;;;12.15;8.90;;;9.00;81.00;;;;;;5114730;28;20390;-44
2021/01/03 03:17:49;;;;;;;12.43;8.52;;;9.00;80.90;;;;;;5114430;27;20066;-45
2021/01/03 03:20:16;;;;;;;13.73;7.90;;;9.00;81.00;;;;;;5114147;28;20134;-43
2021/01/03 03:22:42;;;;;;;15.18;9.27;;;9.00;81.00;;;;;;5113488;28;20040;-45
2021/01/03 03:25:09;;;;;;;11.95;7.63;;;9.00;80.90;;;;;;5114075;28;20039;-47
2021/01/03 03:27:35;;;;;;;15.98;8.68;;;9.00;80.90;;;;;;5114147;28;20483;-45
2021/01/03 03:30:05;;;;;;;16.05;9.25;;;9.00;80.90;;;;;;5113922;28;20055;-43
2021/01/03 03:32:31;;;;;;;15.02;9.15;;;9.00;80.90;;;;;;5114133;28;20055;-46
2021/01/03 03:34:57;;;;;;;15.48;7.97;;;9.00;80.90;;;;;;5113844;28;20047;-46
2021/01/03 03:37:22;;;;;;;13.38;7.97;;;9.00;80.90;;;;;;5114045;28;20044;-48
2021/01/03 03:39:48;;;;;;;15.70;9.13;;;9.00;80.90;;;;;;5113906;28;20043;-45
2021/01/03 03:42:14;;;;;;;12.70;8.55;;;9.00;80.90;;;;;;5114129;28;20043;-48
2021/01/03 03:44:40;;;;;;;13.75;8.40;;;9.00;80.90;;;;;;5113782;28;20064;-48
2021/01/03 03:47:06;;;;;;;14.35;8.55;;;9.00;80.90;;;;;;5114095;28;20071;-48
2021/01/03 03:49:32;;;;;;;14.38;8.65;;;9.00;80.90;;;;;;5113804;28;20130;-46
2021/01/03 03:52:00;;;;;;;15.57;9.40;;;9.00;80.90;;;;;;5113875;28;20130;-47
2021/01/03 03:54:26;;;;;;;14.02;8.52;;;9.00;80.90;;;;;;5112059;28;20040;-47
2021/01/03 03:56:54;;;;;;;13.80;8.35;;;9.00;80.90;;;;;;5113694;28;20041;-47
2021/01/03 03:59:22;;;;;;;13.75;9.27;;;9.00;80.90;;;;;;5113713;28;20050;-48
2021/01/03 04:01:48;;;;;;;13.43;8.02;;;9.00;80.90;;;;;;5113630;28;20077;-45
2021/01/03 04:04:16;;;;;;;14.48;9.00;;;9.00;81.00;;;;;;5113367;28;20456;-46
2021/01/03 04:06:41;;;;;;;15.35;9.10;;;9.00;80.90;;;;;;5113724;28;20134;-46
2021/01/03 04:09:08;;;;;;;14.40;9.80;;;9.00;80.90;;;;;;5113683;28;20462;-47
2021/01/03 04:11:39;;;;;;;14.95;8.80;;;9.00;80.90;;;;;;5113350;28;20043;-45
2021/01/03 04:14:04;;;;;;;13.13;8.15;;;9.00;80.90;;;;;;5113504;28;20052;-50
2021/01/03 04:16:30;;;;;;;13.98;9.25;;;9.00;80.90;;;;;;5113496;28;20106;-46
2021/01/03 04:18:56;;;;;;;15.02;9.68;;;9.00;80.90;;;;;;5113204;28;20065;-45
2021/01/03 04:21:21;;;;;;;16.25;9.57;;;9.00;80.90;;;;;;5113276;28;20059;-45
2021/01/03 04:23:47;;;;;;;15.15;9.25;;;9.00;80.90;;;;;;5113697;28;20050;-47
2021/01/03 04:26:31;;;;;;;14.40;9.82;;;9.00;80.90;;;;;;5113143;28;20043;-44
2021/01/03 04:28:56;;;;;;;15.07;9.38;;;9.00;80.90;;;;;;5113213;28;20040;-45
2021/01/03 04:31:22;;;;;;;16.05;9.32;;;9.00;80.90;;;;;;5113156;28;20101;-47
2021/01/03 04:33:48;;;;;;;15.98;9.55;;;9.00;80.90;;;;;;5113023;28;20205;-45
2021/01/03 04:36:16;;;;;;;15.27;9.45;;;9.00;80.90;;;;;;5117759;28;20040;-48
2021/01/03 04:38:42;;;;;;;16.13;9.55;;;9.00;80.90;;;;;;5117614;28;20415;-46
2021/01/03 04:41:12;;;;;;;16.45;10.25;;;9.00;80.90;;;;;;5117597;28;20051;-48
2021/01/03 04:43:38;;;;;;;15.15;9.40;;;9.00;80.90;;;;;;5117031;28;20039;-46
2021/01/03 04:46:10;;;;;;;14.85;8.63;;;9.00;80.90;;;;;;5117183;28;20054;-45
2021/01/03 04:48:38;;;;;;;17.67;9.50;;;9.00;80.90;;;;;;5117038;28;20047;-43
2021/01/03 04:51:33;;;;;;;15.20;9.25;;;9.00;80.90;;;;;;5117479;28;20126;-45
2021/01/03 04:54:12;;;;;;;16.75;10.32;;;9.00;80.90;;;;;;5117259;28;20052;-47
2021/01/03 04:56:41;;;;;;;14.15;9.82;;;9.00;80.90;;;;;;5117091;28;20043;-48
2021/01/03 04:59:19;;;;;;;16.65;9.85;;;9.00;80.90;;;;;;5117161;28;20372;-47
2021/01/03 05:02:12;;;;;;;14.13;9.02;;;9.00;80.90;;;;;;5116858;28;20507;-45
2021/01/03 05:05:15;;;;;;;14.93;9.30;;;9.00;80.90;;;;;;5117070;28;20055;-46
2021/01/03 05:07:51;;;;;;;15.73;9.27;;;9.00;80.90;;;;;;5103167;28;20193;-49
2021/01/03 05:10:21;;;;;;;14.05;9.52;;;9.00;80.90;;;;;;5117028;28;20052;-49
2021/01/03 05:13:05;;;;;;;17.35;9.93;;;9.00;80.90;;;;;;5116642;28;20039;-48
2021/01/03 05:15:33;;;;;;;15.70;8.95;;;9.00;80.90;;;;;;5116845;27;20051;-51
2021/01/03 05:18:00;;;;;;;17.00;10.93;;;9.00;80.90;;;;;;5116603;28;20043;-47
2021/01/03 05:20:26;;;;;;;14.48;9.20;;;9.00;80.90;;;;;;5116881;28;20079;-46
2021/01/03 05:22:51;;;;;;;15.63;10.18;;;9.00;80.90;;;;;;5116621;28;20116;-48
2021/01/03 05:25:20;;;;;;;16.67;10.23;;;9.00;80.90;;;;;;5116657;28;20420;-46
2021/01/03 05:28:04;;;;;;;15.80;9.18;;;9.00;81.00;;;;;;5116329;28;20039;-46
2021/01/03 05:30:30;;;;;;;14.55;9.73;;;9.00;80.90;;;;;;5116195;28;20062;-46
2021/01/03 05:33:11;;;;;;;16.38;10.27;;;9.00;80.90;;;;;;5116662;28;20048;-46
2021/01/03 05:35:43;;;;;;;15.88;9.88;;;9.00;80.90;;;;;;5116660;28;20456;-45
2021/01/03 05:38:11;;;;;;;17.52;9.98;;;9.00;80.90;;;;;;5116315;28;20050;-46
2021/01/03 05:40:40;;;;;;;14.77;9.88;;;9.00;80.90;;;;;;5116280;28;20058;-48
2021/01/03 05:43:22;;;;;;;15.80;9.75;;;9.00;80.90;;;;;;5115815;28;20491;-45
2021/01/03 05:45:58;;;;;;;15.63;9.10;;;9.00;80.90;;;;;;5115691;28;20048;-46
2021/01/03 05:48:27;;;;;;;12.88;9.13;;;9.00;80.90;;;;;;5116114;28;20047;-44
2021/01/03 05:50:52;;;;;;;16.48;10.35;;;9.00;80.90;;;;;;5116087;28;20484;-44
2021/01/03 05:53:21;;;;;;;15.77;9.57;;;9.00;80.90;;;;;;5116021;28;20047;-46
2021/01/03 05:55:52;;;;;;;17.13;10.27;;;9.00;80.90;;;;;;5116054;28;20054;-47
2021/01/03 05:58:19;;;;;;;16.42;10.05;;;9.00;80.90;;;;;;5116045;28;20047;-45
2021/01/03 06:00:46;;;;;;;16.90;9.80;;;9.00;80.90;;;;;;5115546;28;20085;-45
2021/01/03 06:03:18;;;;;;;16.67;10.27;;;9.00;80.90;;;;;;5116113;28;20048;-48
2021/01/03 06:05:47;;;;;;;15.02;9.25;;;9.00;80.90;;;;;;5115806;28;20086;-46
2021/01/03 06:08:17;;;;;;;17.40;10.35;;;9.00;81.00;;;;;;5115449;28;20514;-49
2021/01/03 06:10:43;;;;;;;19.58;10.85;;;9.00;80.90;;;;;;5115741;28;20047;-42
2021/01/03 06:13:11;;;;;;;16.75;9.65;;;9.00;80.90;;;;;;5115733;28;20055;-45
2021/01/03 06:15:53;;;;;;;15.93;10.27;;;9.00;80.90;;;;;;5115593;28;20043;-43
2021/01/03 06:18:45;;;;;;;16.70;10.38;;;9.00;81.00;;;;;;5115644;28;20127;-44
2021/01/03 06:21:25;;;;;;;13.70;9.68;;;9.00;80.90;;;;;;5052662;28;20128;-44
2021/01/03 06:24:16;;;;;;;17.15;10.35;;;9.00;80.90;;;;;;5052528;28;20056;-43
2021/01/03 06:26:56;;;;;;;15.98;9.68;;;9.00;80.90;;;;;;5052652;28;20465;-48
2021/01/03 06:29:46;;;;;;;18.10;10.25;;;9.00;80.90;;;;;;5052430;28;20118;-48
2021/01/03 06:32:21;;;;;;;15.23;9.60;;;9.00;80.90;;;;;;5052303;28;20045;-45
2021/01/03 06:35:09;;;;;;;16.63;10.45;;;9.00;81.00;;;;;;5052433;28;20049;-48
2021/01/03 06:38:10;;;;;;;17.55;11.07;;;9.00;80.90;;;;;;5052324;28;20493;-46
2021/01/03 06:40:39;;;;;;;15.13;10.32;;;9.00;80.90;;;;;;4973590;28;20046;-47
2021/01/03 06:43:37;;;;;;;16.92;10.52;;;9.00;81.00;;;;;;4973578;28;20054;-48
2021/01/03 06:46:36;;;;;;;17.90;10.63;;;9.00;80.90;;;;;;4973066;28;20062;-49
2021/01/03 06:49:32;;;;;;;15.98;10.23;;;9.00;80.90;;;;;;4973383;28;20530;-49
2021/01/03 06:52:10;;;;;;;17.33;10.07;;;9.00;80.90;;;;;;4973472;28;20051;-50
2021/01/03 06:54:59;;;;;;;16.58;9.70;;;9.00;81.00;;;;;;4973132;28;20084;-48
2021/01/03 06:57:40;;;;;;;18.75;10.40;;;9.00;80.90;;;;;;4986603;28;20045;-46
2021/01/03 07:00:25;;;;;;;18.25;11.38;;;9.00;80.90;;;;;;5052043;28;20072;-47
2021/01/03 07:03:06;;;;;;;16.23;10.20;;;9.00;80.90;;;;;;5051631;28;20065;-46
2021/01/03 07:05:33;;;;;;;19.50;10.88;;;9.00;80.90;;;;;;5051875;28;20524;-46
2021/01/03 07:08:03;;;;;;;17.50;10.82;;;8.90;80.90;;;;;;5051531;28;20057;-45
2021/01/03 07:10:42;;;;;;;20.55;10.82;;;9.00;81.00;;;;;;5051817;28;20045;-49
2021/01/03 07:13:26;;;;;;;17.75;11.05;;;9.00;80.90;;;;;;5051754;28;20453;-49
2021/01/03 07:16:02;;;;;;;19.60;11.55;;;9.00;81.00;;;;;;5114563;27;20047;-46
2021/01/03 07:18:50;;;;;;;17.52;10.23;;;9.00;81.00;;;;;;5114363;28;20054;-44
2021/01/03 07:21:32;;;;;;;19.60;11.57;;;9.00;81.00;;;;;;5114220;28;20063;-49
2021/01/03 07:24:24;;;;;;;16.10;10.45;;;9.00;81.00;;;;;;5114351;28;20120;-50
2021/01/03 07:27:11;;;;;;;18.67;11.75;;;9.00;81.00;;;;;;5114111;28;20044;-45
2021/01/03 07:29:54;;;;;;;19.73;11.90;;;9.00;80.90;;;;;;5114038;28;20071;-42
2021/01/03 07:32:22;;;;;;;17.58;11.18;;;9.00;80.90;;;;;;5113563;28;20055;-48
2021/01/03 07:34:53;;;;;;;17.90;11.05;;;9.00;81.00;;;;;;5113999;28;20047;-42
2021/01/03 07:37:28;;;;;;;20.60;12.38;;;9.00;81.00;;;;;;5114231;28;20036;-47
2021/01/03 07:40:08;;;;;;;21.45;12.43;;;9.00;80.90;;;;;;5113991;28;20039;-47
2021/01/03 07:42:35;;;;;;;18.90;11.30;;;9.00;80.90;;;;;;5114116;28;20477;-42
2021/01/03 07:45:16;;;;;;;19.50;11.85;;;9.00;81.00;;;;;;5113625;28;20051;-46
2021/01/03 07:47:50;;;;;;;18.65;11.45;;;9.00;81.60;;;;;;5110391;28;20043;-46
2021/01/03 07:50:34;;;;;;;21.90;12.57;;;9.00;81.00;;;;;;5112907;28;20118;-44
2021/01/03 07:53:16;;;;;;;20.52;11.27;;;9.00;81.00;;;;;;5112950;28;20048;-44
2021/01/03 07:55:42;;;;;;;18.92;11.52;;;9.00;80.90;;;;;;5112779;28;20051;-43
2021/01/03 07:58:17;;;;;;;18.38;11.05;;;8.90;80.90;;;;;;5113215;28;20441;-45
2021/01/03 08:00:44;;;;;;;17.42;11.25;;;9.00;81.00;;;;;;5108726;28;20043;-42
2021/01/03 08:03:12;;;;;;;20.02;12.02;;;9.00;80.90;;;;;;5110209;28;20564;-44
2021/01/03 08:05:40;;;;;;;17.85;12.15;;;9.00;80.90;;;;;;5112389;28;20056;-43
2021/01/03 08:08:15;;;;;;;19.58;11.23;;;9.00;80.90;;;;;;5112366;28;20426;-42
2021/01/03 08:10:43;;;;;;;18.88;11.15;;;9.00;80.90;;;;;;5109731;28;20499;-42
2021/01/03 08:13:31;;;;;;;20.98;11.82;;;9.00;81.00;;;;;;5110031;28;20074;-46
2021/01/03 08:16:01;;;;;;;17.55;10.80;;;9.00;80.90;;;;;;5111994;28;20048;-49
2021/01/03 08:18:36;;;;;;;18.73;11.57;;;9.00;81.00;;;;;;5112114;28;20090;-46
2021/01/03 08:21:05;;;;;;;18.00;11.35;;;9.00;80.90;;;;;;5111109;28;20047;-48
2021/01/03 08:23:34;;;;;;;19.17;10.98;;;9.00;80.90;;;;;;5112164;28;20105;-45
2021/01/03 08:26:12;;;;;;;20.00;12.15;;;9.00;81.60;;;;;;5112881;28;20046;-44
2021/01/03 08:29:05;;;;;;;14.70;10.23;;;9.00;80.90;;;;;;5109389;28;20452;-44
2021/01/03 08:31:32;;;;;;;20.85;11.73;;;9.00;80.90;;;;;;5111602;28;20567;-44
2021/01/03 08:33:59;;;;;;;19.02;10.98;;;9.00;80.90;;;;;;5112630;28;20044;-47
2021/01/03 08:36:29;;;;;;;19.40;11.93;;;9.00;80.90;;;;;;5112492;28;20047;-45
2021/01/03 08:39:03;;;;;;;20.55;11.73;;;9.00;80.90;;;;;;5112831;28;20047;-44
2021/01/03 08:41:31;;;;;;;20.15;11.20;;;9.00;80.90;;;;;;5112417;28;20138;-41
2021/01/03 08:43:57;;;;;;;18.63;11.57;;;9.00;80.90;;;;;;5112795;28;20044;-43
2021/01/03 08:46:28;;;;;;;20.95;11.30;;;9.00;80.90;;;;;;5112296;28;20071;-43
2021/01/03 08:49:08;;;;;;;18.48;10.70;;;9.00;80.90;;;;;;5112280;28;20079;-41
2021/01/03 08:52:08;;;;;;;17.23;10.70;;;9.00;80.90;;;;;;5111774;28;20047;-43
2021/01/03 08:54:34;;;;;;;17.40;10.77;;;9.00;80.90;;;;;;5112371;28;20491;-43
2021/01/03 08:57:02;;;;;;;17.45;11.02;;;9.00;81.30;;;;;;5112606;28;20096;-45
2021/01/03 08:59:28;;;;;;;19.40;11.88;;;9.00;80.90;;;;;;5111924;28;20138;-43
2021/01/03 09:01:54;;;;;;;16.55;10.38;;;9.00;80.90;;;;;;5112440;28;20388;-44
2021/01/03 09:04:20;;;;;;;16.85;10.85;;;9.00;80.90;;;;;;5112183;28;20399;-43
2021/01/03 09:06:58;;;;;;;18.05;11.25;;;9.00;80.90;;;;;;5112279;28;20052;-42
2021/01/03 09:09:28;;;;;;;17.35;12.05;;;9.00;80.90;;;;;;5112122;28;20074;-43
2021/01/03 09:12:05;;;;;;;17.25;10.93;;;9.00;80.80;;;;;;5112212;28;20403;-41
2021/01/03 09:14:36;;;;;;;18.88;11.90;;;9.00;80.80;;;;;;5112313;28;20057;-43
2021/01/03 09:17:10;;;;;;;17.95;10.55;;;9.00;80.80;;;;;;5112504;28;20101;-43
2021/01/03 09:19:57;;;;;;;17.02;10.57;;;9.00;80.80;;;;;;5109276;28;20059;-47
2021/01/03 09:22:36;;;;;;;19.58;11.02;;;9.00;80.80;;;;;;5113501;28;20052;-42
2021/01/03 09:25:35;;;;;;;17.75;10.40;;;9.00;80.80;;;;;;5115910;28;20046;-43
2021/01/03 09:28:33;;;;;;;17.75;9.80;;;9.00;80.80;;;;;;5115724;28;20051;-43
2021/01/03 09:31:10;;;;;;;15.90;10.15;;;9.00;80.90;;;;;;5115714;27;20078;-43
2021/01/03 09:33:36;;;;;;;19.45;11.13;;;9.00;80.80;;;;;;5115610;27;20108;-42
2021/01/03 09:36:10;;;;;;;16.05;10.85;;;9.00;80.80;;;;;;5116269;28;20040;-42
2021/01/03 09:39:10;;;;;;;19.00;11.20;;;9.00;80.80;;;;;;5116473;28;20059;-47
2021/01/03 09:42:02;;;;;;;16.80;10.20;;;9.00;80.80;;;;;;5116265;28;20123;-48
2021/01/03 09:45:02;;;;;;;18.08;11.18;;;9.00;80.80;;;;;;5115999;27;20054;-45
2021/01/03 09:47:40;;;;;;;18.40;10.30;;;9.00;80.80;;;;;;5116473;27;20044;-49
2021/01/03 09:50:30;;;;;;;18.38;11.25;;;9.00;80.90;;;;;;5117274;28;20048;-45
2021/01/03 09:53:19;;;;;;;18.92;11.40;;;9.00;80.80;;;;;;5116474;28;20126;-45
2021/01/03 09:56:01;;;;;;;18.40;10.73;;;9.00;80.80;;;;;;5116015;28;20518;-46
2021/01/03 09:58:43;;;;;;;16.98;10.20;;;9.00;80.80;;;;;;5116278;28;20039;-44
2021/01/03 10:01:24;;;;;;;17.15;10.32;;;9.00;80.80;;;;;;5115947;28;20096;-45
2021/01/03 10:03:50;;;;;;;15.30;10.10;;;9.00;80.80;;;;;;5115800;28;20614;-46
2021/01/03 10:06:30;;;;;;;18.90;11.50;;;9.00;80.80;;;;;;5115538;28;20082;-45
2021/01/03 10:09:17;;;;;;;18.65;10.45;;;9.00;80.80;;;;;;5115757;28;20339;-45
2021/01/03 10:11:44;;;;;;;17.65;10.15;;;9.00;80.80;;;;;;5115690;28;20051;-46
2021/01/03 10:14:13;;;;;;;17.10;10.68;;;9.00;80.90;;;;;;5115971;27;20800;-45
2021/01/03 10:16:41;;;;;;;18.05;10.85;;;9.00;80.80;;;;;;5115617;28;20055;-44
2021/01/03 10:19:16;;;;;;;15.25;10.15;;;9.00;80.80;;;;;;5115692;28;20044;-45
2021/01/03 10:21:42;;;;;;;16.15;10.25;;;9.00;80.80;;;;;;5115395;28;20048;-46
2021/01/03 10:24:23;;;;;;;18.10;10.50;;;9.00;80.80;;;;;;5115506;27;20048;-45
2021/01/03 10:27:12;;;;;;;17.20;11.07;;;9.00;80.80;;;;;;5115427;28;20126;-46
2021/01/03 10:29:38;;;;;;;17.83;11.10;;;9.00;80.80;;;;;;5115458;28;20054;-45
2021/01/03 10:32:04;;;;;;;17.30;10.40;;;9.00;80.80;;;;;;5115141;28;20052;-46
2021/01/03 10:34:30;;;;;;;17.27;9.93;;;9.00;80.80;;;;;;5115292;28;20403;-45
2021/01/03 10:36:57;;;;;;;18.85;10.85;;;9.00;80.80;;;;;;5115018;28;20132;-46
2021/01/03 10:39:24;;;;;;;18.48;11.52;;;9.00;80.80;;;;;;5115172;28;20074;-45
2021/01/03 10:41:50;;;;;;;17.23;10.60;;;9.00;80.80;;;;;;5115211;28;20054;-45
2021/01/03 10:44:16;;;;;;;18.13;11.98;;;9.00;80.80;;;;;;5114914;28;20036;-46
2021/01/03 10:46:42;;;;;;;17.20;10.52;;;9.00;80.80;;;;;;5115171;28;20062;-45
2021/01/03 10:49:10;;;;;;;16.20;10.00;;;9.00;80.80;;;;;;5115062;28;20055;-46
2021/01/03 10:51:41;;;;;;;16.75;9.73;;;9.00;80.80;;;;;;5114730;27;20393;-46
2021/01/03 10:54:10;;;;;;;16.65;10.50;;;9.00;80.80;;;;;;5114726;28;20096;-45
2021/01/03 10:56:36;;;;;;;17.85;9.77;;;9.00;80.80;;;;;;5114783;28;20119;-46
2021/01/03 10:59:03;;;;;;;14.38;9.77;;;9.00;80.80;;;;;;5114951;28;20096;-46
2021/01/03 11:01:29;;;;;;;17.77;10.05;;;9.00;80.80;;;;;;5114728;28;20092;-48
2021/01/03 11:03:54;;;;;;;16.88;10.27;;;9.00;81.40;;;;;;5114671;28;20131;-45
2021/01/03 11:06:20;;;;;;;17.13;10.77;;;9.00;80.80;;;;;;5114602;28;20513;-45
2021/01/03 11:08:46;;;;;;;16.70;10.52;;;9.00;80.80;;;;;;5114119;28;20047;-46
2021/01/03 11:11:20;;;;;;;17.05;10.73;;;9.00;80.80;;;;;;5114701;28;20055;-48
2021/01/03 11:13:47;;;;;;;17.75;10.52;;;9.00;80.70;;;;;;5114608;28;20067;-50
2021/01/03 11:16:13;;;;;;;16.30;10.35;;;9.00;80.70;;;;;;5114602;28;20118;-47
2021/01/03 11:18:38;;;;;;;16.92;9.98;;;9.00;80.70;;;;;;5114430;28;20142;-46
2021/01/03 11:21:10;;;;;;;16.90;9.45;;;9.10;80.80;;;;;;5114101;28;20054;-44
2021/01/03 11:23:37;;;;;;;15.52;10.55;;;9.00;80.70;;;;;;5114129;27;20047;-47
2021/01/03 11:26:03;;;;;;;17.50;10.20;;;9.00;80.70;;;;;;5114186;28;20047;-46
2021/01/03 11:28:29;;;;;;;14.85;9.23;;;9.00;80.80;;;;;;5114093;28;20552;-45
2021/01/03 11:30:55;;;;;;;15.38;9.70;;;9.00;80.70;;;;;;5113296;27;20047;-45
2021/01/03 11:33:21;;;;;;;17.25;10.32;;;9.00;80.70;;;;;;5113951;28;20559;-45
2021/01/03 11:35:48;;;;;;;17.27;9.98;;;9.00;80.70;;;;;;5114095;28;20127;-44
2021/01/03 11:38:13;;;;;;;16.02;10.07;;;9.00;80.70;;;;;;5113931;27;20377;-45
2021/01/03 11:40:39;;;;;;;16.77;10.27;;;9.00;80.70;;;;;;5113738;28;20055;-44
2021/01/03 11:43:05;;;;;;;14.48;8.90;;;9.00;80.70;;;;;;5113604;28;20480;-44
2021/01/03 11:45:30;;;;;;;14.57;9.75;;;9.00;80.70;;;;;;5113852;28;20057;-44
2021/01/03 11:47:56;;;;;;;15.85;9.52;;;9.00;80.70;;;;;;5113614;28;20043;-45
2021/01/03 11:50:23;;;;;;;16.73;10.00;;;9.00;80.70;;;;;;5113804;28;20130;-44
2021/01/03 11:52:49;;;;;;;15.32;10.15;;;9.00;80.70;;;;;;5113680;28;20058;-45
2021/01/03 11:55:18;;;;;;;16.33;9.38;;;9.00;80.70;;;;;;5113325;28;20058;-45
2021/01/03 11:57:45;;;;;;;14.82;9.07;;;9.00;81.40;;;;;;5113726;28;20126;-47
2021/01/03 12:00:14;;;;;;;16.17;9.80;;;9.00;80.70;;;;;;5113330;28;20056;-45
2021/01/03 12:02:41;;;;;;;14.32;9.13;;;9.00;80.70;;;;;;5113446;28;20048;-42
2021/01/03 12:05:08;;;;;;;14.63;9.18;;;9.00;80.70;;;;;;5113280;28;20050;-44
2021/01/03 12:07:34;;;;;;;13.77;9.23;;;9.00;80.70;;;;;;5113356;28;20476;-44
2021/01/03 12:10:00;;;;;;;13.68;8.82;;;9.00;80.70;;;;;;5113378;28;20080;-45
2021/01/03 12:12:26;;;;;;;16.27;10.05;;;9.00;80.70;;;;;;5113400;28;20492;-44
2021/01/03 12:14:52;;;;;;;14.73;8.98;;;9.00;80.70;;;;;;5113129;28;20054;-44
2021/01/03 12:17:22;;;;;;;14.25;8.85;;;9.00;80.70;;;;;;5113183;28;20055;-43
2021/01/03 12:19:49;;;;;;;13.57;8.63;;;9.00;80.70;;;;;;5112373;28;20043;-45
2021/01/03 12:22:16;;;;;;;12.55;7.88;;;9.00;80.70;;;;;;5113279;28;20167;-44
2021/01/03 12:24:43;;;;;;;13.73;9.13;;;9.00;80.70;;;;;;5113186;28;20047;-44
2021/01/03 12:27:11;;;;;;;12.20;8.18;;;9.00;80.70;;;;;;5113532;28;20055;-46
2021/01/03 12:29:37;;;;;;;13.60;8.35;;;9.00;80.70;;;;;;5113419;28;20050;-45
2021/01/03 12:32:07;;;;;;;13.75;8.30;;;9.00;80.60;;;;;;5112948;28;20410;-44
2021/01/03 12:34:33;;;;;;;11.93;8.27;;;9.00;80.70;;;;;;5113243;28;20510;-45
2021/01/03 12:37:11;;;;;;;11.77;8.85;;;9.10;80.70;;;;;;5113137;28;20097;-45
2021/01/03 12:39:39;;;;;;;12.63;7.85;;;9.00;80.60;;;;;;5113542;28;20055;-47
2021/01/03 12:42:06;;;;;;;12.98;8.00;;;9.00;80.60;;;;;;5112520;28;20048;-47
2021/01/03 12:44:32;;;;;;;10.02;7.03;;;9.00;80.60;;;;;;5113274;28;20079;-47
2021/01/03 12:47:00;;;;;;;12.25;8.20;;;9.10;80.70;;;;;;5113240;28;20443;-49
2021/01/03 12:49:26;;;;;;;12.15;7.93;;;9.00;80.60;;;;;;5112967;28;20047;-45
2021/01/03 12:51:52;;;;;;;10.85;7.32;;;9.00;80.60;;;;;;5113026;28;20513;-46
2021/01/03 12:54:19;;;;;;;11.82;6.88;;;9.00;80.60;;;;;;5113276;28;20044;-49
2021/01/03 12:56:45;;;;;;;10.30;7.10;;;9.00;80.60;;;;;;5115983;28;20043;-46
2021/01/03 12:59:11;;;;;;;12.23;7.60;;;9.10;80.60;;;;;;5117005;28;20062;-43
2021/01/03 13:01:38;;;;;;;13.27;8.25;;;9.00;80.60;;;;;;5117169;27;20067;-49
2021/01/03 13:04:06;;;;;;;13.00;8.25;;;9.00;80.60;;;;;;5116710;28;20528;-46
2021/01/03 13:06:36;;;;;;;10.88;7.53;;;9.00;80.50;;;;;;5116946;28;20078;-46